sensor_id;sensor_type;location;lat;lon;timestamp;temperature;humidity
24668;DHT22;12793;48.014;0.232;2022-08-02T00:00:12;21.30;54.80
24668;DHT22;12793;48.014;0.232;2022-08-02T00:02:40;21.30;55.00
24668;DHT22;12793;48.014;0.232;2022-08-02T00:05:06;21.30;55.00
24668;DHT22;12793;48.014;0.232;2022-08-02T00:07:33;21.30;55.00
24668;DHT22;12793;48.014;0.232;2022-08-02T00:09:58;21.20;55.00
24668;DHT22;12793;48.014;0.232;2022-08-02T00:12:24;21.20;55.20
24668;DHT22;12793;48.014;0.232;2022-08-02T00:14:50;21.20;55.30
24668;DHT22;12793;48.014;0.232;2022-08-02T00:17:16;21.20;55.30
24668;DHT22;12793;48.014;0.232;2022-08-02T00:19:42;21.20;55.40
24668;DHT22;12793;48.014;0.232;2022-08-02T00:22:08;21.20;55.50
24668;DHT22;12793;48.014;0.232;2022-08-02T00:24:34;21.20;55.40
24668;DHT22;12793;48.014;0.232;2022-08-02T00:26:59;21.20;55.50
24668;DHT22;12793;48.014;0.232;2022-08-02T00:29:31;21.20;55.70
24668;DHT22;12793;48.014;0.232;2022-08-02T00:31:57;21.20;55.50
24668;DHT22;12793;48.014;0.232;2022-08-02T00:34:23;21.20;55.70
24668;DHT22;12793;48.014;0.232;2022-08-02T00:36:49;21.20;55.80
24668;DHT22;12793;48.014;0.232;2022-08-02T00:39:15;21.20;55.70
24668;DHT22;12793;48.014;0.232;2022-08-02T00:41:48;21.20;55.60
24668;DHT22;12793;48.014;0.232;2022-08-02T00:44:15;21.20;55.60
24668;DHT22;12793;48.014;0.232;2022-08-02T00:46:42;21.20;55.70
24668;DHT22;12793;48.014;0.232;2022-08-02T00:49:08;21.10;55.70
24668;DHT22;12793;48.014;0.232;2022-08-02T00:51:34;21.10;55.80
24668;DHT22;12793;48.014;0.232;2022-08-02T00:54:00;21.10;55.90
24668;DHT22;12793;48.014;0.232;2022-08-02T00:56:27;21.10;56.00
24668;DHT22;12793;48.014;0.232;2022-08-02T00:58:53;21.10;56.00
24668;DHT22;12793;48.014;0.232;2022-08-02T01:01:18;21.00;56.10
24668;DHT22;12793;48.014;0.232;2022-08-02T01:03:44;21.00;56.20
24668;DHT22;12793;48.014;0.232;2022-08-02T01:06:10;21.00;56.20
24668;DHT22;12793;48.014;0.232;2022-08-02T01:08:39;21.00;56.20
24668;DHT22;12793;48.014;0.232;2022-08-02T01:11:05;21.00;56.20
24668;DHT22;12793;48.014;0.232;2022-08-02T01:13:30;20.90;56.20
24668;DHT22;12793;48.014;0.232;2022-08-02T01:16:12;20.90;56.20
24668;DHT22;12793;48.014;0.232;2022-08-02T01:18:42;20.90;56.20
24668;DHT22;12793;48.014;0.232;2022-08-02T01:21:16;20.80;56.40
24668;DHT22;12793;48.014;0.232;2022-08-02T01:29:07;20.80;56.70
24668;DHT22;12793;48.014;0.232;2022-08-02T01:31:39;20.70;56.70
24668;DHT22;12793;48.014;0.232;2022-08-02T01:34:39;20.70;56.70
24668;DHT22;12793;48.014;0.232;2022-08-02T01:40:09;20.70;56.70
24668;DHT22;12793;48.014;0.232;2022-08-02T01:42:38;20.70;56.70
24668;DHT22;12793;48.014;0.232;2022-08-02T01:45:05;20.70;56.70
24668;DHT22;12793;48.014;0.232;2022-08-02T01:47:34;20.80;56.70
24668;DHT22;12793;48.014;0.232;2022-08-02T01:50:03;20.80;56.70
24668;DHT22;12793;48.014;0.232;2022-08-02T01:52:32;20.80;56.60
24668;DHT22;12793;48.014;0.232;2022-08-02T01:55:12;20.80;56.70
24668;DHT22;12793;48.014;0.232;2022-08-02T01:57:56;20.80;56.70
24668;DHT22;12793;48.014;0.232;2022-08-02T02:00:24;20.80;56.70
24668;DHT22;12793;48.014;0.232;2022-08-02T02:02:52;20.70;56.70
24668;DHT22;12793;48.014;0.232;2022-08-02T02:05:21;20.70;56.80
24668;DHT22;12793;48.014;0.232;2022-08-02T02:07:49;20.70;56.90
24668;DHT22;12793;48.014;0.232;2022-08-02T02:10:20;20.70;57.00
24668;DHT22;12793;48.014;0.232;2022-08-02T02:12:49;20.70;57.00
24668;DHT22;12793;48.014;0.232;2022-08-02T02:15:16;20.70;56.90
24668;DHT22;12793;48.014;0.232;2022-08-02T02:17:47;20.60;56.90
24668;DHT22;12793;48.014;0.232;2022-08-02T02:20:15;20.60;57.00
24668;DHT22;12793;48.014;0.232;2022-08-02T02:22:42;20.60;56.90
24668;DHT22;12793;48.014;0.232;2022-08-02T02:25:09;20.40;57.10
24668;DHT22;12793;48.014;0.232;2022-08-02T02:27:36;20.40;57.30
24668;DHT22;12793;48.014;0.232;2022-08-02T02:30:05;20.40;57.40
24668;DHT22;12793;48.014;0.232;2022-08-02T02:32:32;20.40;57.50
24668;DHT22;12793;48.014;0.232;2022-08-02T02:35:03;20.40;57.50
24668;DHT22;12793;48.014;0.232;2022-08-02T02:37:29;20.40;57.40
24668;DHT22;12793;48.014;0.232;2022-08-02T02:39:57;20.40;57.40
24668;DHT22;12793;48.014;0.232;2022-08-02T02:42:28;20.50;57.40
24668;DHT22;12793;48.014;0.232;2022-08-02T02:44:55;20.50;57.40
24668;DHT22;12793;48.014;0.232;2022-08-02T02:47:22;20.40;57.40
24668;DHT22;12793;48.014;0.232;2022-08-02T02:49:49;20.40;57.40
24668;DHT22;12793;48.014;0.232;2022-08-02T02:52:16;20.50;57.50
24668;DHT22;12793;48.014;0.232;2022-08-02T02:54:45;20.50;57.40
24668;DHT22;12793;48.014;0.232;2022-08-02T02:57:11;20.50;57.40
24668;DHT22;12793;48.014;0.232;2022-08-02T02:59:39;20.40;57.30
24668;DHT22;12793;48.014;0.232;2022-08-02T03:02:05;20.40;57.50
24668;DHT22;12793;48.014;0.232;2022-08-02T03:04:31;20.40;57.50
24668;DHT22;12793;48.014;0.232;2022-08-02T03:06:59;20.30;57.50
24668;DHT22;12793;48.014;0.232;2022-08-02T03:09:25;20.30;57.50
24668;DHT22;12793;48.014;0.232;2022-08-02T03:11:52;20.30;57.60
24668;DHT22;12793;48.014;0.232;2022-08-02T03:14:19;20.30;57.50
24668;DHT22;12793;48.014;0.232;2022-08-02T03:16:50;20.30;57.60
24668;DHT22;12793;48.014;0.232;2022-08-02T03:19:19;20.30;57.60
24668;DHT22;12793;48.014;0.232;2022-08-02T03:21:46;20.30;57.60
24668;DHT22;12793;48.014;0.232;2022-08-02T03:24:12;20.30;57.60
24668;DHT22;12793;48.014;0.232;2022-08-02T03:26:38;20.30;57.60
24668;DHT22;12793;48.014;0.232;2022-08-02T03:29:04;20.30;57.60
24668;DHT22;12793;48.014;0.232;2022-08-02T03:31:31;20.30;57.60
24668;DHT22;12793;48.014;0.232;2022-08-02T03:33:58;20.30;57.60
24668;DHT22;12793;48.014;0.232;2022-08-02T03:36:26;20.20;57.60
24668;DHT22;12793;48.014;0.232;2022-08-02T03:38:54;20.20;57.60
24668;DHT22;12793;48.014;0.232;2022-08-02T03:41:21;20.20;57.60
24668;DHT22;12793;48.014;0.232;2022-08-02T03:43:48;20.20;57.60
24668;DHT22;12793;48.014;0.232;2022-08-02T03:46:18;20.20;57.70
24668;DHT22;12793;48.014;0.232;2022-08-02T03:48:45;20.20;57.70
24668;DHT22;12793;48.014;0.232;2022-08-02T03:51:11;20.20;57.70
24668;DHT22;12793;48.014;0.232;2022-08-02T03:53:37;20.10;57.60
24668;DHT22;12793;48.014;0.232;2022-08-02T03:56:04;20.20;57.70
24668;DHT22;12793;48.014;0.232;2022-08-02T03:58:31;20.10;57.70
24668;DHT22;12793;48.014;0.232;2022-08-02T04:00:58;20.10;57.80
24668;DHT22;12793;48.014;0.232;2022-08-02T04:03:24;20.10;57.80
24668;DHT22;12793;48.014;0.232;2022-08-02T04:05:51;20.10;57.80
24668;DHT22;12793;48.014;0.232;2022-08-02T04:08:16;20.10;57.80
24668;DHT22;12793;48.014;0.232;2022-08-02T04:10:42;20.10;57.80
24668;DHT22;12793;48.014;0.232;2022-08-02T04:13:37;20.10;57.90
24668;DHT22;12793;48.014;0.232;2022-08-02T04:16:17;20.00;57.80
24668;DHT22;12793;48.014;0.232;2022-08-02T04:18:53;20.00;57.90
24668;DHT22;12793;48.014;0.232;2022-08-02T04:21:21;20.00;57.90
24668;DHT22;12793;48.014;0.232;2022-08-02T04:23:49;20.00;57.90
24668;DHT22;12793;48.014;0.232;2022-08-02T04:26:16;20.00;57.90
24668;DHT22;12793;48.014;0.232;2022-08-02T04:28:43;20.00;58.00
24668;DHT22;12793;48.014;0.232;2022-08-02T04:31:09;19.90;57.90
24668;DHT22;12793;48.014;0.232;2022-08-02T04:33:36;19.90;57.90
24668;DHT22;12793;48.014;0.232;2022-08-02T04:36:03;19.90;57.90
24668;DHT22;12793;48.014;0.232;2022-08-02T04:38:29;19.90;57.90
24668;DHT22;12793;48.014;0.232;2022-08-02T04:40:55;19.90;57.90
24668;DHT22;12793;48.014;0.232;2022-08-02T04:43:22;19.90;57.90
24668;DHT22;12793;48.014;0.232;2022-08-02T04:45:50;19.90;58.00
24668;DHT22;12793;48.014;0.232;2022-08-02T04:48:16;19.90;58.00
24668;DHT22;12793;48.014;0.232;2022-08-02T04:50:42;19.90;58.00
24668;DHT22;12793;48.014;0.232;2022-08-02T04:53:08;19.90;58.00
24668;DHT22;12793;48.014;0.232;2022-08-02T04:55:34;19.90;58.00
24668;DHT22;12793;48.014;0.232;2022-08-02T04:57:59;19.90;58.10
24668;DHT22;12793;48.014;0.232;2022-08-02T05:00:27;19.90;58.10
24668;DHT22;12793;48.014;0.232;2022-08-02T05:02:56;19.90;58.10
24668;DHT22;12793;48.014;0.232;2022-08-02T05:05:22;19.90;58.10
24668;DHT22;12793;48.014;0.232;2022-08-02T05:07:49;19.80;58.10
24668;DHT22;12793;48.014;0.232;2022-08-02T05:10:16;19.80;58.10
24668;DHT22;12793;48.014;0.232;2022-08-02T05:12:42;19.80;58.20
24668;DHT22;12793;48.014;0.232;2022-08-02T05:15:11;19.80;58.20
24668;DHT22;12793;48.014;0.232;2022-08-02T05:17:37;19.80;58.70
24668;DHT22;12793;48.014;0.232;2022-08-02T05:20:04;19.80;58.30
24668;DHT22;12793;48.014;0.232;2022-08-02T05:22:30;19.80;58.30
24668;DHT22;12793;48.014;0.232;2022-08-02T05:24:56;19.80;58.40
24668;DHT22;12793;48.014;0.232;2022-08-02T05:27:22;19.80;58.30
24668;DHT22;12793;48.014;0.232;2022-08-02T05:29:48;19.80;58.30
24668;DHT22;12793;48.014;0.232;2022-08-02T05:32:16;19.90;58.80
24668;DHT22;12793;48.014;0.232;2022-08-02T05:34:42;19.90;58.30
24668;DHT22;12793;48.014;0.232;2022-08-02T05:37:08;19.90;58.30
24668;DHT22;12793;48.014;0.232;2022-08-02T05:39:33;19.90;58.30
24668;DHT22;12793;48.014;0.232;2022-08-02T05:41:59;19.90;58.30
24668;DHT22;12793;48.014;0.232;2022-08-02T05:44:25;19.90;58.40
24668;DHT22;12793;48.014;0.232;2022-08-02T05:46:50;19.90;58.40
24668;DHT22;12793;48.014;0.232;2022-08-02T05:49:16;19.90;58.40
24668;DHT22;12793;48.014;0.232;2022-08-02T05:51:48;19.90;58.40
24668;DHT22;12793;48.014;0.232;2022-08-02T05:54:30;19.90;58.40
24668;DHT22;12793;48.014;0.232;2022-08-02T05:57:04;20.00;58.40
24668;DHT22;12793;48.014;0.232;2022-08-02T06:02:03;20.00;58.50
24668;DHT22;12793;48.014;0.232;2022-08-02T06:05:08;20.10;58.60
24668;DHT22;12793;48.014;0.232;2022-08-02T06:07:35;20.10;58.50
24668;DHT22;12793;48.014;0.232;2022-08-02T06:10:06;20.10;58.50
24668;DHT22;12793;48.014;0.232;2022-08-02T06:12:37;20.10;58.40
24668;DHT22;12793;48.014;0.232;2022-08-02T06:15:06;20.20;58.40
24668;DHT22;12793;48.014;0.232;2022-08-02T06:17:32;20.20;58.50
24668;DHT22;12793;48.014;0.232;2022-08-02T06:19:59;20.30;58.50
24668;DHT22;12793;48.014;0.232;2022-08-02T06:22:26;20.30;58.50
24668;DHT22;12793;48.014;0.232;2022-08-02T06:24:53;20.40;58.60
24668;DHT22;12793;48.014;0.232;2022-08-02T06:27:20;20.50;58.50
24668;DHT22;12793;48.014;0.232;2022-08-02T06:29:50;20.50;58.50
24668;DHT22;12793;48.014;0.232;2022-08-02T06:32:18;20.60;58.40
24668;DHT22;12793;48.014;0.232;2022-08-02T06:34:45;20.70;58.30
24668;DHT22;12793;48.014;0.232;2022-08-02T06:43:05;20.90;58.00
24668;DHT22;12793;48.014;0.232;2022-08-02T06:45:32;21.00;57.90
24668;DHT22;12793;48.014;0.232;2022-08-02T06:47:59;21.00;57.80
24668;DHT22;12793;48.014;0.232;2022-08-02T06:50:25;21.10;57.80
24668;DHT22;12793;48.014;0.232;2022-08-02T06:52:51;21.10;57.60
24668;DHT22;12793;48.014;0.232;2022-08-02T06:55:17;21.20;57.50
24668;DHT22;12793;48.014;0.232;2022-08-02T06:57:44;21.30;57.50
24668;DHT22;12793;48.014;0.232;2022-08-02T07:00:10;21.40;57.50
24668;DHT22;12793;48.014;0.232;2022-08-02T07:02:37;21.40;57.30
24668;DHT22;12793;48.014;0.232;2022-08-02T07:05:05;21.50;57.30
24668;DHT22;12793;48.014;0.232;2022-08-02T07:07:31;21.60;57.20
24668;DHT22;12793;48.014;0.232;2022-08-02T07:09:58;21.70;57.10
24668;DHT22;12793;48.014;0.232;2022-08-02T07:12:24;21.70;57.00
24668;DHT22;12793;48.014;0.232;2022-08-02T07:14:50;21.80;57.00
24668;DHT22;12793;48.014;0.232;2022-08-02T07:17:16;21.90;57.00
24668;DHT22;12793;48.014;0.232;2022-08-02T07:19:41;21.90;56.90
24668;DHT22;12793;48.014;0.232;2022-08-02T07:22:07;22.00;56.80
24668;DHT22;12793;48.014;0.232;2022-08-02T07:24:33;22.00;56.70
24668;DHT22;12793;48.014;0.232;2022-08-02T07:26:58;22.10;56.60
24668;DHT22;12793;48.014;0.232;2022-08-02T07:29:25;22.20;56.40
24668;DHT22;12793;48.014;0.232;2022-08-02T07:31:51;22.20;56.40
24668;DHT22;12793;48.014;0.232;2022-08-02T07:34:16;22.40;56.40
24668;DHT22;12793;48.014;0.232;2022-08-02T07:36:42;22.40;56.20
24668;DHT22;12793;48.014;0.232;2022-08-02T07:39:08;22.50;56.10
24668;DHT22;12793;48.014;0.232;2022-08-02T07:41:34;22.60;56.10
24668;DHT22;12793;48.014;0.232;2022-08-02T07:43:59;22.70;56.00
24668;DHT22;12793;48.014;0.232;2022-08-02T07:46:25;22.80;55.90
24668;DHT22;12793;48.014;0.232;2022-08-02T07:48:51;22.90;55.80
24668;DHT22;12793;48.014;0.232;2022-08-02T07:51:20;22.90;55.50
24668;DHT22;12793;48.014;0.232;2022-08-02T07:53:46;23.00;55.50
24668;DHT22;12793;48.014;0.232;2022-08-02T07:56:11;23.10;55.40
24668;DHT22;12793;48.014;0.232;2022-08-02T07:58:37;23.20;55.30
24668;DHT22;12793;48.014;0.232;2022-08-02T08:01:05;23.30;55.20
24668;DHT22;12793;48.014;0.232;2022-08-02T08:03:31;23.40;55.10
24668;DHT22;12793;48.014;0.232;2022-08-02T08:05:57;23.50;54.90
24668;DHT22;12793;48.014;0.232;2022-08-02T08:08:22;23.50;54.70
24668;DHT22;12793;48.014;0.232;2022-08-02T08:10:48;23.70;54.60
24668;DHT22;12793;48.014;0.232;2022-08-02T08:13:15;23.70;54.40
24668;DHT22;12793;48.014;0.232;2022-08-02T08:15:41;23.80;54.20
24668;DHT22;12793;48.014;0.232;2022-08-02T08:18:07;23.90;54.00
24668;DHT22;12793;48.014;0.232;2022-08-02T08:20:33;24.00;53.80
24668;DHT22;12793;48.014;0.232;2022-08-02T08:22:59;24.00;53.60
24668;DHT22;12793;48.014;0.232;2022-08-02T08:25:24;24.10;53.30
24668;DHT22;12793;48.014;0.232;2022-08-02T08:27:51;24.10;53.20
24668;DHT22;12793;48.014;0.232;2022-08-02T08:30:20;24.20;53.20
24668;DHT22;12793;48.014;0.232;2022-08-02T08:32:47;24.30;53.10
24668;DHT22;12793;48.014;0.232;2022-08-02T08:35:14;24.30;53.00
24668;DHT22;12793;48.014;0.232;2022-08-02T08:37:40;24.40;52.80
24668;DHT22;12793;48.014;0.232;2022-08-02T08:40:07;24.50;52.70
24668;DHT22;12793;48.014;0.232;2022-08-02T08:42:35;24.50;52.60
24668;DHT22;12793;48.014;0.232;2022-08-02T08:45:01;24.60;52.40
24668;DHT22;12793;48.014;0.232;2022-08-02T08:47:39;24.60;52.30
24668;DHT22;12793;48.014;0.232;2022-08-02T08:50:05;24.70;52.30
24668;DHT22;12793;48.014;0.232;2022-08-02T08:52:40;24.80;52.30
24668;DHT22;12793;48.014;0.232;2022-08-02T08:55:08;24.90;52.10
24668;DHT22;12793;48.014;0.232;2022-08-02T08:57:39;25.00;51.90
24668;DHT22;12793;48.014;0.232;2022-08-02T09:00:07;25.10;51.80
24668;DHT22;12793;48.014;0.232;2022-08-02T09:02:36;25.20;51.70
24668;DHT22;12793;48.014;0.232;2022-08-02T09:05:02;25.30;51.60
24668;DHT22;12793;48.014;0.232;2022-08-02T09:07:27;25.40;51.50
24668;DHT22;12793;48.014;0.232;2022-08-02T09:09:53;25.50;51.30
24668;DHT22;12793;48.014;0.232;2022-08-02T09:12:19;25.70;51.20
24668;DHT22;12793;48.014;0.232;2022-08-02T09:14:49;25.80;50.90
24668;DHT22;12793;48.014;0.232;2022-08-02T09:17:15;26.00;50.50
24668;DHT22;12793;48.014;0.232;2022-08-02T09:19:41;26.00;50.20
24668;DHT22;12793;48.014;0.232;2022-08-02T09:22:09;26.20;50.30
24668;DHT22;12793;48.014;0.232;2022-08-02T09:24:49;26.30;49.80
24668;DHT22;12793;48.014;0.232;2022-08-02T09:27:21;26.40;49.60
24668;DHT22;12793;48.014;0.232;2022-08-02T09:29:53;26.50;49.70
24668;DHT22;12793;48.014;0.232;2022-08-02T09:32:19;26.50;49.70
24668;DHT22;12793;48.014;0.232;2022-08-02T09:34:50;26.70;49.50
24668;DHT22;12793;48.014;0.232;2022-08-02T09:37:29;26.80;48.90
24668;DHT22;12793;48.014;0.232;2022-08-02T09:39:56;26.80;48.50
24668;DHT22;12793;48.014;0.232;2022-08-02T09:42:25;26.90;48.40
24668;DHT22;12793;48.014;0.232;2022-08-02T09:44:58;27.10;48.90
24668;DHT22;12793;48.014;0.232;2022-08-02T09:47:25;27.20;48.10
24668;DHT22;12793;48.014;0.232;2022-08-02T09:49:53;27.30;48.00
24668;DHT22;12793;48.014;0.232;2022-08-02T09:52:29;27.40;47.80
24668;DHT22;12793;48.014;0.232;2022-08-02T09:54:55;27.50;47.60
24668;DHT22;12793;48.014;0.232;2022-08-02T09:57:28;27.60;47.60
24668;DHT22;12793;48.014;0.232;2022-08-02T09:59:56;27.80;47.30
24668;DHT22;12793;48.014;0.232;2022-08-02T10:02:22;27.80;47.10
24668;DHT22;12793;48.014;0.232;2022-08-02T10:04:49;28.00;47.10
24668;DHT22;12793;48.014;0.232;2022-08-02T10:07:16;28.10;46.80
24668;DHT22;12793;48.014;0.232;2022-08-02T10:09:44;28.20;46.40
24668;DHT22;12793;48.014;0.232;2022-08-02T10:12:11;28.40;46.60
24668;DHT22;12793;48.014;0.232;2022-08-02T10:14:37;28.50;46.50
24668;DHT22;12793;48.014;0.232;2022-08-02T10:17:04;28.70;46.50
24668;DHT22;12793;48.014;0.232;2022-08-02T10:19:30;28.80;46.20
24668;DHT22;12793;48.014;0.232;2022-08-02T10:22:11;28.90;45.60
24668;DHT22;12793;48.014;0.232;2022-08-02T10:24:38;29.00;45.70
24668;DHT22;12793;48.014;0.232;2022-08-02T10:27:06;29.10;45.50
24668;DHT22;12793;48.014;0.232;2022-08-02T10:29:37;29.30;45.60
24668;DHT22;12793;48.014;0.232;2022-08-02T10:32:16;29.40;45.20
24668;DHT22;12793;48.014;0.232;2022-08-02T10:35:10;29.60;45.00
24668;DHT22;12793;48.014;0.232;2022-08-02T10:37:37;29.80;44.70
24668;DHT22;12793;48.014;0.232;2022-08-02T10:40:05;29.90;44.10
24668;DHT22;12793;48.014;0.232;2022-08-02T10:42:49;30.10;43.90
24668;DHT22;12793;48.014;0.232;2022-08-02T10:45:17;30.20;43.50
24668;DHT22;12793;48.014;0.232;2022-08-02T10:48:03;30.30;43.50
24668;DHT22;12793;48.014;0.232;2022-08-02T10:55:51;30.70;43.10
24668;DHT22;12793;48.014;0.232;2022-08-02T10:58:23;30.90;42.40
24668;DHT22;12793;48.014;0.232;2022-08-02T11:00:49;31.00;42.40
24668;DHT22;12793;48.014;0.232;2022-08-02T11:06:10;31.10;41.60
24668;DHT22;12793;48.014;0.232;2022-08-02T11:08:36;31.20;41.70
24668;DHT22;12793;48.014;0.232;2022-08-02T11:13:59;31.40;41.30
24668;DHT22;12793;48.014;0.232;2022-08-02T11:19:21;31.80;40.80
24668;DHT22;12793;48.014;0.232;2022-08-02T11:24:33;32.00;40.60
24668;DHT22;12793;48.014;0.232;2022-08-02T11:27:01;32.10;40.20
24668;DHT22;12793;48.014;0.232;2022-08-02T11:29:38;32.20;39.90
24668;DHT22;12793;48.014;0.232;2022-08-02T11:32:14;32.30;39.60
24668;DHT22;12793;48.014;0.232;2022-08-02T11:34:42;32.50;39.60
24668;DHT22;12793;48.014;0.232;2022-08-02T11:37:08;32.70;39.00
24668;DHT22;12793;48.014;0.232;2022-08-02T11:39:33;32.80;39.30
24668;DHT22;12793;48.014;0.232;2022-08-02T11:42:00;33.10;39.20
24668;DHT22;12793;48.014;0.232;2022-08-02T11:44:29;33.30;39.10
24668;DHT22;12793;48.014;0.232;2022-08-02T11:47:00;33.50;38.70
24668;DHT22;12793;48.014;0.232;2022-08-02T11:49:26;33.70;38.20
24668;DHT22;12793;48.014;0.232;2022-08-02T11:54:34;33.80;38.00
24668;DHT22;12793;48.014;0.232;2022-08-02T11:59:42;34.10;37.60
24668;DHT22;12793;48.014;0.232;2022-08-02T12:02:09;34.30;37.70
24668;DHT22;12793;48.014;0.232;2022-08-02T12:04:36;34.50;36.90
24668;DHT22;12793;48.014;0.232;2022-08-02T12:07:03;34.70;36.70
24668;DHT22;12793;48.014;0.232;2022-08-02T12:09:30;34.80;36.70
24668;DHT22;12793;48.014;0.232;2022-08-02T12:11:58;35.00;36.90
24668;DHT22;12793;48.014;0.232;2022-08-02T12:14:26;35.20;36.70
24668;DHT22;12793;48.014;0.232;2022-08-02T12:16:52;35.40;36.30
24668;DHT22;12793;48.014;0.232;2022-08-02T12:19:38;35.50;36.40
24668;DHT22;12793;48.014;0.232;2022-08-02T12:24:33;35.80;35.90
24668;DHT22;12793;48.014;0.232;2022-08-02T12:26:58;36.00;35.80
24668;DHT22;12793;48.014;0.232;2022-08-02T12:29:37;36.00;35.20
24668;DHT22;12793;48.014;0.232;2022-08-02T12:32:04;36.00;35.30
24668;DHT22;12793;48.014;0.232;2022-08-02T12:34:32;36.00;35.10
24668;DHT22;12793;48.014;0.232;2022-08-02T12:39:41;36.10;35.10
24668;DHT22;12793;48.014;0.232;2022-08-02T12:42:09;36.20;35.10
24668;DHT22;12793;48.014;0.232;2022-08-02T12:44:37;36.30;34.70
24668;DHT22;12793;48.014;0.232;2022-08-02T12:47:07;36.40;34.60
24668;DHT22;12793;48.014;0.232;2022-08-02T12:49:36;36.40;34.10
24668;DHT22;12793;48.014;0.232;2022-08-02T12:52:23;36.40;34.30
24668;DHT22;12793;48.014;0.232;2022-08-02T12:54:49;36.50;34.40
24668;DHT22;12793;48.014;0.232;2022-08-02T12:57:16;36.60;34.30
24668;DHT22;12793;48.014;0.232;2022-08-02T12:59:51;36.70;34.10
24668;DHT22;12793;48.014;0.232;2022-08-02T13:02:17;36.80;33.80
24668;DHT22;12793;48.014;0.232;2022-08-02T13:04:43;36.80;33.80
24668;DHT22;12793;48.014;0.232;2022-08-02T13:07:08;36.80;34.00
24668;DHT22;12793;48.014;0.232;2022-08-02T13:09:38;36.90;34.20
24668;DHT22;12793;48.014;0.232;2022-08-02T13:12:07;37.10;34.00
24668;DHT22;12793;48.014;0.232;2022-08-02T13:14:34;37.20;33.80
24668;DHT22;12793;48.014;0.232;2022-08-02T13:17:00;37.30;33.50
24668;DHT22;12793;48.014;0.232;2022-08-02T13:19:26;37.40;33.40
24668;DHT22;12793;48.014;0.232;2022-08-02T13:21:52;37.50;33.10
24668;DHT22;12793;48.014;0.232;2022-08-02T13:24:19;37.50;33.10
24668;DHT22;12793;48.014;0.232;2022-08-02T13:26:45;37.50;33.40
24668;DHT22;12793;48.014;0.232;2022-08-02T13:29:11;37.70;33.20
24668;DHT22;12793;48.014;0.232;2022-08-02T13:31:38;37.80;32.90
24668;DHT22;12793;48.014;0.232;2022-08-02T13:34:08;37.90;32.80
24668;DHT22;12793;48.014;0.232;2022-08-02T13:36:34;37.90;32.40
24668;DHT22;12793;48.014;0.232;2022-08-02T13:39:01;37.90;32.50
24668;DHT22;12793;48.014;0.232;2022-08-02T13:41:31;37.90;32.70
24668;DHT22;12793;48.014;0.232;2022-08-02T13:43:57;38.00;32.50
24668;DHT22;12793;48.014;0.232;2022-08-02T13:46:23;38.20;32.40
24668;DHT22;12793;48.014;0.232;2022-08-02T13:48:49;38.30;32.30
24668;DHT22;12793;48.014;0.232;2022-08-02T13:51:15;38.40;32.30
24668;DHT22;12793;48.014;0.232;2022-08-02T13:53:41;38.50;32.20
24668;DHT22;12793;48.014;0.232;2022-08-02T13:56:07;38.70;32.20
24668;DHT22;12793;48.014;0.232;2022-08-02T13:58:33;38.90;31.60
24668;DHT22;12793;48.014;0.232;2022-08-02T14:00:59;38.90;31.60
24668;DHT22;12793;48.014;0.232;2022-08-02T14:03:25;38.80;31.30
24668;DHT22;12793;48.014;0.232;2022-08-02T14:05:51;38.80;31.40
24668;DHT22;12793;48.014;0.232;2022-08-02T14:08:18;38.80;31.70
24668;DHT22;12793;48.014;0.232;2022-08-02T14:10:51;38.80;31.70
24668;DHT22;12793;48.014;0.232;2022-08-02T14:13:18;38.80;31.60
24668;DHT22;12793;48.014;0.232;2022-08-02T14:15:46;38.80;31.50
24668;DHT22;12793;48.014;0.232;2022-08-02T14:18:12;38.80;31.50
24668;DHT22;12793;48.014;0.232;2022-08-02T14:20:42;38.90;31.70
24668;DHT22;12793;48.014;0.232;2022-08-02T14:23:10;39.00;31.50
24668;DHT22;12793;48.014;0.232;2022-08-02T14:25:36;39.10;31.20
24668;DHT22;12793;48.014;0.232;2022-08-02T14:28:03;39.00;30.70
24668;DHT22;12793;48.014;0.232;2022-08-02T14:30:29;38.70;31.00
24668;DHT22;12793;48.014;0.232;2022-08-02T14:32:55;38.70;31.10
24668;DHT22;12793;48.014;0.232;2022-08-02T14:35:23;38.60;31.10
24668;DHT22;12793;48.014;0.232;2022-08-02T14:37:49;38.60;31.20
24668;DHT22;12793;48.014;0.232;2022-08-02T14:40:16;38.60;31.10
24668;DHT22;12793;48.014;0.232;2022-08-02T14:42:43;38.50;30.70
24668;DHT22;12793;48.014;0.232;2022-08-02T14:45:09;38.50;30.90
24668;DHT22;12793;48.014;0.232;2022-08-02T14:47:35;38.50;31.00
24668;DHT22;12793;48.014;0.232;2022-08-02T14:50:00;38.70;31.10
24668;DHT22;12793;48.014;0.232;2022-08-02T14:52:27;38.80;31.00
24668;DHT22;12793;48.014;0.232;2022-08-02T14:54:53;38.90;30.90
24668;DHT22;12793;48.014;0.232;2022-08-02T14:57:21;39.00;30.60
24668;DHT22;12793;48.014;0.232;2022-08-02T14:59:46;38.90;30.40
24668;DHT22;12793;48.014;0.232;2022-08-02T15:02:12;38.90;30.50
24668;DHT22;12793;48.014;0.232;2022-08-02T15:04:38;38.90;30.50
24668;DHT22;12793;48.014;0.232;2022-08-02T15:07:03;38.90;30.50
24668;DHT22;12793;48.014;0.232;2022-08-02T15:09:29;38.90;30.40
24668;DHT22;12793;48.014;0.232;2022-08-02T15:11:58;38.80;30.00
24668;DHT22;12793;48.014;0.232;2022-08-02T15:14:23;38.80;30.30
24668;DHT22;12793;48.014;0.232;2022-08-02T15:16:51;38.80;30.40
24668;DHT22;12793;48.014;0.232;2022-08-02T15:19:16;38.80;30.20
24668;DHT22;12793;48.014;0.232;2022-08-02T15:21:42;38.80;30.50
24668;DHT22;12793;48.014;0.232;2022-08-02T15:24:10;39.00;30.60
24668;DHT22;12793;48.014;0.232;2022-08-02T15:26:36;39.00;30.40
24668;DHT22;12793;48.014;0.232;2022-08-02T15:29:04;39.10;30.30
24668;DHT22;12793;48.014;0.232;2022-08-02T15:31:29;39.00;30.10
24668;DHT22;12793;48.014;0.232;2022-08-02T15:33:55;38.90;30.20
24668;DHT22;12793;48.014;0.232;2022-08-02T15:36:21;38.80;30.50
24668;DHT22;12793;48.014;0.232;2022-08-02T15:38:47;38.90;30.70
24668;DHT22;12793;48.014;0.232;2022-08-02T15:41:13;38.90;30.50
24668;DHT22;12793;48.014;0.232;2022-08-02T15:43:40;38.90;30.60
24668;DHT22;12793;48.014;0.232;2022-08-02T15:46:05;39.00;30.80
24668;DHT22;12793;48.014;0.232;2022-08-02T15:48:32;38.90;30.60
24668;DHT22;12793;48.014;0.232;2022-08-02T15:50:57;39.00;30.60
24668;DHT22;12793;48.014;0.232;2022-08-02T15:53:23;38.80;30.30
24668;DHT22;12793;48.014;0.232;2022-08-02T15:55:49;38.70;30.40
24668;DHT22;12793;48.014;0.232;2022-08-02T15:58:15;38.60;30.50
24668;DHT22;12793;48.014;0.232;2022-08-02T16:00:41;38.70;30.80
24668;DHT22;12793;48.014;0.232;2022-08-02T16:03:06;38.80;30.60
24668;DHT22;12793;48.014;0.232;2022-08-02T16:05:32;38.80;30.50
24668;DHT22;12793;48.014;0.232;2022-08-02T16:07:58;38.90;30.40
24668;DHT22;12793;48.014;0.232;2022-08-02T16:10:23;38.90;30.10
24668;DHT22;12793;48.014;0.232;2022-08-02T16:12:49;38.90;30.10
24668;DHT22;12793;48.014;0.232;2022-08-02T16:15:15;39.00;30.20
24668;DHT22;12793;48.014;0.232;2022-08-02T16:17:41;39.00;30.00